sensor_id;sensor_type;location;lat;lon;timestamp;P1;durP1;ratioP1;P2;durP2;ratioP2
11046;SDS011;5576;50.008;10.596;2023-06-10T00:01:24;6.90;;;6.30;;
11046;SDS011;5576;50.008;10.596;2023-06-10T00:03:50;6.70;;;6.10;;
11046;SDS011;5576;50.008;10.596;2023-06-10T00:06:17;6.80;;;6.10;;
11046;SDS011;5576;50.008;10.596;2023-06-10T00:08:43;7.03;;;6.32;;
11046;SDS011;5576;50.008;10.596;2023-06-10T00:11:08;6.82;;;6.18;;
11046;SDS011;5576;50.008;10.596;2023-06-10T00:13:35;7.23;;;6.53;;
11046;SDS011;5576;50.008;10.596;2023-06-10T00:16:02;6.70;;;6.10;;
11046;SDS011;5576;50.008;10.596;2023-06-10T00:18:28;6.88;;;6.18;;
11046;SDS011;5576;50.008;10.596;2023-06-10T00:20:56;7.75;;;6.63;;
11046;SDS011;5576;50.008;10.596;2023-06-10T00:23:28;7.03;;;6.43;;
11046;SDS011;5576;50.008;10.596;2023-06-10T00:25:57;6.82;;;6.15;;
11046;SDS011;5576;50.008;10.596;2023-06-10T00:28:24;6.80;;;6.20;;
11046;SDS011;5576;50.008;10.596;2023-06-10T00:30:50;7.00;;;6.40;;
11046;SDS011;5576;50.008;10.596;2023-06-10T00:33:16;6.60;;;6.00;;
11046;SDS011;5576;50.008;10.596;2023-06-10T00:35:42;6.68;;;6.07;;
11046;SDS011;5576;50.008;10.596;2023-06-10T00:38:08;7.67;;;6.20;;
11046;SDS011;5576;50.008;10.596;2023-06-10T00:40:42;7.35;;;6.10;;
11046;SDS011;5576;50.008;10.596;2023-06-10T00:43:08;6.82;;;6.22;;
11046;SDS011;5576;50.008;10.596;2023-06-10T00:45:34;7.25;;;6.53;;
11046;SDS011;5576;50.008;10.596;2023-06-10T00:48:00;6.75;;;6.15;;
11046;SDS011;5576;50.008;10.596;2023-06-10T00:50:27;6.88;;;6.28;;
11046;SDS011;5576;50.008;10.596;2023-06-10T00:52:53;6.85;;;6.25;;
11046;SDS011;5576;50.008;10.596;2023-06-10T00:55:20;6.82;;;6.18;;
11046;SDS011;5576;50.008;10.596;2023-06-10T00:57:46;6.95;;;6.25;;
11046;SDS011;5576;50.008;10.596;2023-06-10T01:00:13;7.03;;;6.33;;
11046;SDS011;5576;50.008;10.596;2023-06-10T01:02:40;6.93;;;6.32;;
11046;SDS011;5576;50.008;10.596;2023-06-10T01:05:07;6.90;;;6.20;;
11046;SDS011;5576;50.008;10.596;2023-06-10T01:07:37;6.53;;;5.93;;
11046;SDS011;5576;50.008;10.596;2023-06-10T01:10:11;6.75;;;6.22;;
11046;SDS011;5576;50.008;10.596;2023-06-10T01:12:51;7.45;;;6.47;;
11046;SDS011;5576;50.008;10.596;2023-06-10T01:15:24;6.82;;;6.22;;
11046;SDS011;5576;50.008;10.596;2023-06-10T01:17:54;6.60;;;6.00;;
11046;SDS011;5576;50.008;10.596;2023-06-10T01:20:22;7.25;;;6.50;;
11046;SDS011;5576;50.008;10.596;2023-06-10T01:22:49;6.80;;;6.20;;
11046;SDS011;5576;50.008;10.596;2023-06-10T01:25:17;7.20;;;6.50;;
11046;SDS011;5576;50.008;10.596;2023-06-10T01:27:44;6.97;;;6.38;;
11046;SDS011;5576;50.008;10.596;2023-06-10T01:30:15;6.93;;;6.32;;
11046;SDS011;5576;50.008;10.596;2023-06-10T01:32:47;6.70;;;6.10;;
11046;SDS011;5576;50.008;10.596;2023-06-10T01:35:15;7.57;;;6.87;;
11046;SDS011;5576;50.008;10.596;2023-06-10T01:37:43;7.68;;;6.93;;
11046;SDS011;5576;50.008;10.596;2023-06-10T01:40:12;7.07;;;6.38;;
11046;SDS011;5576;50.008;10.596;2023-06-10T01:42:39;6.97;;;6.38;;
11046;SDS011;5576;50.008;10.596;2023-06-10T01:45:05;7.45;;;6.68;;
11046;SDS011;5576;50.008;10.596;2023-06-10T01:47:31;7.00;;;6.40;;
11046;SDS011;5576;50.008;10.596;2023-06-10T01:49:58;7.30;;;6.50;;
11046;SDS011;5576;50.008;10.596;2023-06-10T01:52:25;7.50;;;6.77;;
11046;SDS011;5576;50.008;10.596;2023-06-10T01:54:51;7.25;;;6.65;;
11046;SDS011;5576;50.008;10.596;2023-06-10T01:57:16;7.40;;;6.70;;
11046;SDS011;5576;50.008;10.596;2023-06-10T01:59:43;7.20;;;6.60;;
11046;SDS011;5576;50.008;10.596;2023-06-10T02:02:10;7.27;;;6.67;;
11046;SDS011;5576;50.008;10.596;2023-06-10T02:04:37;7.30;;;6.57;;
11046;SDS011;5576;50.008;10.596;2023-06-10T02:07:03;7.93;;;6.85;;
11046;SDS011;5576;50.008;10.596;2023-06-10T02:09:31;7.00;;;6.40;;
11046;SDS011;5576;50.008;10.596;2023-06-10T02:11:57;7.28;;;6.57;;
11046;SDS011;5576;50.008;10.596;2023-06-10T02:14:23;7.10;;;6.45;;
11046;SDS011;5576;50.008;10.596;2023-06-10T02:16:49;7.80;;;7.05;;
11046;SDS011;5576;50.008;10.596;2023-06-10T02:19:16;7.15;;;6.55;;
11046;SDS011;5576;50.008;10.596;2023-06-10T02:21:42;7.25;;;6.28;;
11046;SDS011;5576;50.008;10.596;2023-06-10T02:24:08;7.22;;;6.57;;
11046;SDS011;5576;50.008;10.596;2023-06-10T02:26:34;7.22;;;6.53;;
11046;SDS011;5576;50.008;10.596;2023-06-10T02:29:01;7.25;;;6.45;;
11046;SDS011;5576;50.008;10.596;2023-06-10T02:31:27;7.28;;;6.40;;
11046;SDS011;5576;50.008;10.596;2023-06-10T02:33:54;7.20;;;6.60;;
11046;SDS011;5576;50.008;10.596;2023-06-10T02:36:21;7.53;;;6.82;;
11046;SDS011;5576;50.008;10.596;2023-06-10T02:38:49;7.20;;;6.50;;
11046;SDS011;5576;50.008;10.596;2023-06-10T02:41:16;7.32;;;6.60;;
11046;SDS011;5576;50.008;10.596;2023-06-10T02:43:42;7.23;;;6.57;;
11046;SDS011;5576;50.008;10.596;2023-06-10T02:46:08;7.28;;;6.60;;
11046;SDS011;5576;50.008;10.596;2023-06-10T02:48:40;7.40;;;6.70;;
11046;SDS011;5576;50.008;10.596;2023-06-10T02:51:09;7.30;;;6.60;;
11046;SDS011;5576;50.008;10.596;2023-06-10T02:53:39;7.25;;;6.65;;
11046;SDS011;5576;50.008;10.596;2023-06-10T02:56:08;7.40;;;6.70;;
11046;SDS011;5576;50.008;10.596;2023-06-10T02:58:34;7.80;;;7.10;;
11046;SDS011;5576;50.008;10.596;2023-06-10T03:01:01;7.68;;;6.90;;
11046;SDS011;5576;50.008;10.596;2023-06-10T03:03:33;7.43;;;6.80;;
11046;SDS011;5576;50.008;10.596;2023-06-10T03:06:06;7.88;;;7.07;;
11046;SDS011;5576;50.008;10.596;2023-06-10T03:08:33;7.80;;;7.10;;
11046;SDS011;5576;50.008;10.596;2023-06-10T03:11:03;7.70;;;6.93;;
11046;SDS011;5576;50.008;10.596;2023-06-10T03:13:30;7.90;;;7.17;;
11046;SDS011;5576;50.008;10.596;2023-06-10T03:15:57;7.95;;;7.20;;
11046;SDS011;5576;50.008;10.596;2023-06-10T03:18:25;7.88;;;7.15;;
11046;SDS011;5576;50.008;10.596;2023-06-10T03:20:53;7.97;;;7.20;;
11046;SDS011;5576;50.008;10.596;2023-06-10T03:23:21;7.63;;;6.93;;
11046;SDS011;5576;50.008;10.596;2023-06-10T03:25:47;7.28;;;6.65;;
11046;SDS011;5576;50.008;10.596;2023-06-10T03:28:15;7.72;;;7.00;;
11046;SDS011;5576;50.008;10.596;2023-06-10T03:30:42;7.65;;;6.95;;
11046;SDS011;5576;50.008;10.596;2023-06-10T03:33:09;8.00;;;7.20;;
11046;SDS011;5576;50.008;10.596;2023-06-10T03:35:35;8.10;;;7.40;;
11046;SDS011;5576;50.008;10.596;2023-06-10T03:38:02;8.10;;;7.30;;
11046;SDS011;5576;50.008;10.596;2023-06-10T03:40:28;8.50;;;7.70;;
11046;SDS011;5576;50.008;10.596;2023-06-10T03:42:55;7.93;;;7.20;;
11046;SDS011;5576;50.008;10.596;2023-06-10T03:45:22;8.00;;;7.30;;
11046;SDS011;5576;50.008;10.596;2023-06-10T03:47:48;8.02;;;7.30;;
11046;SDS011;5576;50.008;10.596;2023-06-10T03:50:16;8.20;;;7.50;;
11046;SDS011;5576;50.008;10.596;2023-06-10T03:52:44;8.43;;;7.53;;
11046;SDS011;5576;50.008;10.596;2023-06-10T03:55:11;8.13;;;7.38;;
11046;SDS011;5576;50.008;10.596;2023-06-10T03:57:41;8.43;;;7.73;;
11046;SDS011;5576;50.008;10.596;2023-06-10T04:00:07;8.13;;;7.43;;
11046;SDS011;5576;50.008;10.596;2023-06-10T04:02:41;8.00;;;7.35;;
11046;SDS011;5576;50.008;10.596;2023-06-10T04:05:15;8.45;;;7.65;;
11046;SDS011;5576;50.008;10.596;2023-06-10T04:07:42;8.25;;;7.47;;
11046;SDS011;5576;50.008;10.596;2023-06-10T04:10:10;8.15;;;7.43;;
11046;SDS011;5576;50.008;10.596;2023-06-10T04:12:36;8.43;;;7.72;;
11046;SDS011;5576;50.008;10.596;2023-06-10T04:15:03;8.40;;;7.60;;
11046;SDS011;5576;50.008;10.596;2023-06-10T04:17:30;8.40;;;7.60;;
11046;SDS011;5576;50.008;10.596;2023-06-10T04:19:57;8.50;;;7.65;;
11046;SDS011;5576;50.008;10.596;2023-06-10T04:22:25;7.75;;;7.05;;
11046;SDS011;5576;50.008;10.596;2023-06-10T04:24:52;8.50;;;7.72;;
11046;SDS011;5576;50.008;10.596;2023-06-10T04:27:18;8.77;;;7.95;;
11046;SDS011;5576;50.008;10.596;2023-06-10T04:29:44;8.40;;;7.60;;
11046;SDS011;5576;50.008;10.596;2023-06-10T04:32:10;8.85;;;7.88;;
11046;SDS011;5576;50.008;10.596;2023-06-10T04:34:37;8.43;;;7.63;;
11046;SDS011;5576;50.008;10.596;2023-06-10T04:37:05;8.50;;;7.70;;
11046;SDS011;5576;50.008;10.596;2023-06-10T04:39:31;8.18;;;7.40;;
11046;SDS011;5576;50.008;10.596;2023-06-10T04:41:58;8.27;;;7.47;;
11046;SDS011;5576;50.008;10.596;2023-06-10T04:44:25;8.40;;;7.50;;
11046;SDS011;5576;50.008;10.596;2023-06-10T04:46:52;8.65;;;7.85;;
11046;SDS011;5576;50.008;10.596;2023-06-10T04:49:18;8.48;;;7.57;;
11046;SDS011;5576;50.008;10.596;2023-06-10T04:51:43;8.48;;;7.70;;
11046;SDS011;5576;50.008;10.596;2023-06-10T04:54:09;7.82;;;7.03;;
11046;SDS011;5576;50.008;10.596;2023-06-10T04:56:35;7.80;;;7.10;;
11046;SDS011;5576;50.008;10.596;2023-06-10T04:59:02;7.90;;;7.20;;
11046;SDS011;5576;50.008;10.596;2023-06-10T05:01:27;7.93;;;7.23;;
11046;SDS011;5576;50.008;10.596;2023-06-10T05:03:53;8.65;;;7.82;;
11046;SDS011;5576;50.008;10.596;2023-06-10T05:06:19;8.77;;;7.80;;
11046;SDS011;5576;50.008;10.596;2023-06-10T05:08:45;8.30;;;7.60;;
11046;SDS011;5576;50.008;10.596;2023-06-10T05:11:10;8.80;;;8.00;;
11046;SDS011;5576;50.008;10.596;2023-06-10T05:13:36;10.13;;;7.97;;
11046;SDS011;5576;50.008;10.596;2023-06-10T05:16:02;8.70;;;7.90;;
11046;SDS011;5576;50.008;10.596;2023-06-10T05:18:27;8.45;;;7.65;;
11046;SDS011;5576;50.008;10.596;2023-06-10T05:20:53;8.50;;;7.70;;
11046;SDS011;5576;50.008;10.596;2023-06-10T05:23:19;9.43;;;7.90;;
11046;SDS011;5576;50.008;10.596;2023-06-10T05:25:45;8.52;;;7.72;;
11046;SDS011;5576;50.008;10.596;2023-06-10T05:28:11;8.65;;;7.80;;
11046;SDS011;5576;50.008;10.596;2023-06-10T05:30:37;9.30;;;8.27;;
11046;SDS011;5576;50.008;10.596;2023-06-10T05:33:04;8.85;;;7.90;;
11046;SDS011;5576;50.008;10.596;2023-06-10T05:35:30;8.80;;;8.00;;
11046;SDS011;5576;50.008;10.596;2023-06-10T05:37:56;9.85;;;8.30;;
11046;SDS011;5576;50.008;10.596;2023-06-10T05:40:22;8.75;;;7.82;;
11046;SDS011;5576;50.008;10.596;2023-06-10T05:42:47;9.48;;;7.72;;
11046;SDS011;5576;50.008;10.596;2023-06-10T05:45:13;8.67;;;7.77;;
11046;SDS011;5576;50.008;10.596;2023-06-10T05:47:39;8.32;;;7.40;;
11046;SDS011;5576;50.008;10.596;2023-06-10T05:50:05;10.30;;;7.90;;
11046;SDS011;5576;50.008;10.596;2023-06-10T05:52:33;9.85;;;8.70;;
11046;SDS011;5576;50.008;10.596;2023-06-10T05:55:00;8.88;;;7.55;;
11046;SDS011;5576;50.008;10.596;2023-06-10T05:57:26;9.02;;;8.15;;
11046;SDS011;5576;50.008;10.596;2023-06-10T05:59:52;8.90;;;8.00;;
11046;SDS011;5576;50.008;10.596;2023-06-10T06:02:17;9.82;;;7.82;;
11046;SDS011;5576;50.008;10.596;2023-06-10T06:04:43;10.03;;;7.73;;
11046;SDS011;5576;50.008;10.596;2023-06-10T06:07:09;9.77;;;7.53;;
11046;SDS011;5576;50.008;10.596;2023-06-10T06:09:35;10.27;;;7.70;;
11046;SDS011;5576;50.008;10.596;2023-06-10T06:12:00;8.57;;;6.78;;
11046;SDS011;5576;50.008;10.596;2023-06-10T06:14:26;10.83;;;7.40;;
11046;SDS011;5576;50.008;10.596;2023-06-10T06:16:56;11.13;;;7.70;;
11046;SDS011;5576;50.008;10.596;2023-06-10T06:19:21;8.98;;;7.00;;
11046;SDS011;5576;50.008;10.596;2023-06-10T06:21:47;9.20;;;7.00;;
11046;SDS011;5576;50.008;10.596;2023-06-10T06:24:13;9.27;;;8.05;;
11046;SDS011;5576;50.008;10.596;2023-06-10T06:26:40;9.60;;;7.18;;
11046;SDS011;5576;50.008;10.596;2023-06-10T06:29:05;10.13;;;7.30;;
11046;SDS011;5576;50.008;10.596;2023-06-10T06:31:31;9.73;;;7.30;;
11046;SDS011;5576;50.008;10.596;2023-06-10T06:33:57;10.30;;;7.18;;
11046;SDS011;5576;50.008;10.596;2023-06-10T06:36:23;9.38;;;7.13;;
11046;SDS011;5576;50.008;10.596;2023-06-10T06:38:48;8.70;;;7.33;;
11046;SDS011;5576;50.008;10.596;2023-06-10T06:41:14;7.90;;;6.53;;
11046;SDS011;5576;50.008;10.596;2023-06-10T06:43:40;7.55;;;6.85;;
11046;SDS011;5576;50.008;10.596;2023-06-10T06:46:15;7.65;;;6.57;;
11046;SDS011;5576;50.008;10.596;2023-06-10T06:48:41;7.20;;;6.50;;
11046;SDS011;5576;50.008;10.596;2023-06-10T06:51:06;6.70;;;6.10;;
11046;SDS011;5576;50.008;10.596;2023-06-10T06:53:32;7.40;;;6.60;;
11046;SDS011;5576;50.008;10.596;2023-06-10T06:56:00;6.90;;;6.20;;
11046;SDS011;5576;50.008;10.596;2023-06-10T06:58:26;7.88;;;6.47;;
11046;SDS011;5576;50.008;10.596;2023-06-10T07:00:52;7.30;;;6.25;;
11046;SDS011;5576;50.008;10.596;2023-06-10T07:03:19;7.20;;;6.53;;
11046;SDS011;5576;50.008;10.596;2023-06-10T07:05:44;6.70;;;6.10;;
11046;SDS011;5576;50.008;10.596;2023-06-10T07:08:10;8.15;;;6.57;;
11046;SDS011;5576;50.008;10.596;2023-06-10T07:10:37;6.55;;;5.97;;
11046;SDS011;5576;50.008;10.596;2023-06-10T07:13:03;7.77;;;6.97;;
11046;SDS011;5576;50.008;10.596;2023-06-10T07:15:28;7.32;;;6.55;;
11046;SDS011;5576;50.008;10.596;2023-06-10T07:17:55;8.40;;;6.05;;
11046;SDS011;5576;50.008;10.596;2023-06-10T07:20:21;6.90;;;6.30;;
11046;SDS011;5576;50.008;10.596;2023-06-10T07:22:47;6.50;;;5.90;;
11046;SDS011;5576;50.008;10.596;2023-06-10T07:25:12;6.65;;;6.05;;
11046;SDS011;5576;50.008;10.596;2023-06-10T07:27:38;6.63;;;6.03;;
11046;SDS011;5576;50.008;10.596;2023-06-10T07:30:05;6.30;;;5.70;;
11046;SDS011;5576;50.008;10.596;2023-06-10T07:32:33;6.43;;;5.82;;
11046;SDS011;5576;50.008;10.596;2023-06-10T07:34:59;6.68;;;6.07;;
11046;SDS011;5576;50.008;10.596;2023-06-10T07:37:24;6.68;;;6.07;;
11046;SDS011;5576;50.008;10.596;2023-06-10T07:39:50;6.38;;;5.78;;
11046;SDS011;5576;50.008;10.596;2023-06-10T07:42:17;6.35;;;5.72;;
11046;SDS011;5576;50.008;10.596;2023-06-10T07:44:43;6.77;;;5.47;;
11046;SDS011;5576;50.008;10.596;2023-06-10T07:47:08;6.28;;;4.95;;
11046;SDS011;5576;50.008;10.596;2023-06-10T07:49:34;5.80;;;5.23;;
11046;SDS011;5576;50.008;10.596;2023-06-10T07:52:00;5.43;;;4.88;;
11046;SDS011;5576;50.008;10.596;2023-06-10T07:54:26;5.72;;;5.07;;
11046;SDS011;5576;50.008;10.596;2023-06-10T07:56:51;5.78;;;5.18;;
11046;SDS011;5576;50.008;10.596;2023-06-10T07:59:18;6.20;;;4.97;;
11046;SDS011;5576;50.008;10.596;2023-06-10T08:01:44;5.47;;;4.97;;
11046;SDS011;5576;50.008;10.596;2023-06-10T08:04:10;5.97;;;5.37;;
11046;SDS011;5576;50.008;10.596;2023-06-10T08:06:36;5.90;;;5.30;;
11046;SDS011;5576;50.008;10.596;2023-06-10T08:09:02;5.40;;;4.90;;
11046;SDS011;5576;50.008;10.596;2023-06-10T08:11:28;5.43;;;4.93;;
11046;SDS011;5576;50.008;10.596;2023-06-10T08:13:54;5.30;;;4.90;;
11046;SDS011;5576;50.008;10.596;2023-06-10T08:16:20;4.90;;;4.50;;
11046;SDS011;5576;50.008;10.596;2023-06-10T08:18:46;4.57;;;4.17;;
11046;SDS011;5576;50.008;10.596;2023-06-10T08:21:12;4.70;;;4.20;;
11046;SDS011;5576;50.008;10.596;2023-06-10T08:23:37;4.20;;;3.80;;
11046;SDS011;5576;50.008;10.596;2023-06-10T08:26:04;4.65;;;4.25;;
11046;SDS011;5576;50.008;10.596;2023-06-10T08:28:30;4.60;;;4.20;;
11046;SDS011;5576;50.008;10.596;2023-06-10T08:30:55;4.72;;;3.90;;
11046;SDS011;5576;50.008;10.596;2023-06-10T08:33:21;5.30;;;4.13;;
11046;SDS011;5576;50.008;10.596;2023-06-10T08:35:47;5.63;;;4.27;;
11046;SDS011;5576;50.008;10.596;2023-06-10T08:38:12;5.53;;;4.53;;
11046;SDS011;5576;50.008;10.596;2023-06-10T08:40:38;4.70;;;4.30;;
11046;SDS011;5576;50.008;10.596;2023-06-10T08:43:06;4.60;;;4.20;;
11046;SDS011;5576;50.008;10.596;2023-06-10T08:45:36;5.20;;;4.70;;
11046;SDS011;5576;50.008;10.596;2023-06-10T08:48:02;5.20;;;4.70;;
11046;SDS011;5576;50.008;10.596;2023-06-10T08:50:34;4.90;;;4.40;;
11046;SDS011;5576;50.008;10.596;2023-06-10T08:53:01;5.20;;;4.70;;
11046;SDS011;5576;50.008;10.596;2023-06-10T08:55:31;5.75;;;4.70;;
11046;SDS011;5576;50.008;10.596;2023-06-10T08:57:59;4.90;;;4.50;;
11046;SDS011;5576;50.008;10.596;2023-06-10T09:00:26;5.25;;;4.63;;
11046;SDS011;5576;50.008;10.596;2023-06-10T09:02:52;5.50;;;5.00;;
11046;SDS011;5576;50.008;10.596;2023-06-10T09:05:19;5.20;;;4.70;;
11046;SDS011;5576;50.008;10.596;2023-06-10T09:07:45;4.60;;;4.20;;
11046;SDS011;5576;50.008;10.596;2023-06-10T09:10:12;5.10;;;4.60;;
11046;SDS011;5576;50.008;10.596;2023-06-10T09:12:38;4.53;;;4.13;;
11046;SDS011;5576;50.008;10.596;2023-06-10T09:15:05;5.40;;;4.57;;
11046;SDS011;5576;50.008;10.596;2023-06-10T09:17:32;4.90;;;4.40;;
11046;SDS011;5576;50.008;10.596;2023-06-10T09:19:59;4.75;;;4.32;;
11046;SDS011;5576;50.008;10.596;2023-06-10T09:22:27;6.32;;;4.30;;
11046;SDS011;5576;50.008;10.596;2023-06-10T09:25:09;5.13;;;4.20;;
11046;SDS011;5576;50.008;10.596;2023-06-10T09:27:52;4.60;;;4.10;;
11046;SDS011;5576;50.008;10.596;2023-06-10T09:30:28;4.82;;;4.15;;
11046;SDS011;5576;50.008;10.596;2023-06-10T09:32:56;4.20;;;3.80;;
11046;SDS011;5576;50.008;10.596;2023-06-10T09:35:24;5.30;;;4.05;;
11046;SDS011;5576;50.008;10.596;2023-06-10T09:37:52;5.13;;;4.00;;
11046;SDS011;5576;50.008;10.596;2023-06-10T09:40:19;4.37;;;3.97;;
11046;SDS011;5576;50.008;10.596;2023-06-10T09:42:45;4.13;;;3.63;;
11046;SDS011;5576;50.008;10.596;2023-06-10T09:45:10;3.95;;;3.65;;
11046;SDS011;5576;50.008;10.596;2023-06-10T09:47:36;4.20;;;3.38;;
11046;SDS011;5576;50.008;10.596;2023-06-10T09:50:02;3.93;;;3.57;;
11046;SDS011;5576;50.008;10.596;2023-06-10T09:52:28;4.05;;;3.72;;
11046;SDS011;5576;50.008;10.596;2023-06-10T09:55:02;4.25;;;3.85;;
11046;SDS011;5576;50.008;10.596;2023-06-10T09:57:31;4.40;;;4.00;;
11046;SDS011;5576;50.008;10.596;2023-06-10T09:59:58;4.60;;;4.05;;
11046;SDS011;5576;50.008;10.596;2023-06-10T10:05:14;4.40;;;4.00;;
11046;SDS011;5576;50.008;10.596;2023-06-10T10:07:42;4.70;;;3.90;;
11046;SDS011;5576;50.008;10.596;2023-06-10T10:10:10;4.35;;;3.95;;
11046;SDS011;5576;50.008;10.596;2023-06-10T10:12:37;4.15;;;3.60;;
11046;SDS011;5576;50.008;10.596;2023-06-10T10:15:05;4.57;;;3.83;;
11046;SDS011;5576;50.008;10.596;2023-06-10T10:17:35;4.32;;;3.92;;
11046;SDS011;5576;50.008;10.596;2023-06-10T10:20:05;4.47;;;3.70;;
11046;SDS011;5576;50.008;10.596;2023-06-10T10:22:37;4.10;;;3.70;;
11046;SDS011;5576;50.008;10.596;2023-06-10T10:25:08;4.43;;;3.90;;
11046;SDS011;5576;50.008;10.596;2023-06-10T10:27:40;3.73;;;3.37;;
11046;SDS011;5576;50.008;10.596;2023-06-10T10:30:14;5.80;;;3.60;;
11046;SDS011;5576;50.008;10.596;2023-06-10T10:35:30;4.35;;;3.63;;
11046;SDS011;5576;50.008;10.596;2023-06-10T10:37:58;5.03;;;3.42;;
11046;SDS011;5576;50.008;10.596;2023-06-10T10:40:25;3.90;;;3.50;;
11046;SDS011;5576;50.008;10.596;2023-06-10T10:42:55;4.25;;;3.47;;
11046;SDS011;5576;50.008;10.596;2023-06-10T10:45:23;3.92;;;3.50;;
11046;SDS011;5576;50.008;10.596;2023-06-10T10:47:52;4.60;;;3.37;;
11046;SDS011;5576;50.008;10.596;2023-06-10T10:50:20;5.97;;;3.60;;
11046;SDS011;5576;50.008;10.596;2023-06-10T10:52:55;4.15;;;3.50;;
11046;SDS011;5576;50.008;10.596;2023-06-10T10:55:26;3.67;;;3.17;;
11046;SDS011;5576;50.008;10.596;2023-06-10T11:00:26;3.40;;;3.10;;
11046;SDS011;5576;50.008;10.596;2023-06-10T11:02:54;3.90;;;3.60;;
11046;SDS011;5576;50.008;10.596;2023-06-10T11:05:41;3.88;;;3.47;;
11046;SDS011;5576;50.008;10.596;2023-06-10T11:08:10;4.43;;;3.63;;
11046;SDS011;5576;50.008;10.596;2023-06-10T11:10:37;4.18;;;3.38;;
11046;SDS011;5576;50.008;10.596;2023-06-10T11:13:06;4.00;;;3.60;;
11046;SDS011;5576;50.008;10.596;2023-06-10T11:15:39;3.70;;;3.40;;
11046;SDS011;5576;50.008;10.596;2023-06-10T11:23:32;3.70;;;3.40;;
11046;SDS011;5576;50.008;10.596;2023-06-10T11:26:15;3.77;;;3.40;;
11046;SDS011;5576;50.008;10.596;2023-06-10T11:31:24;4.53;;;3.40;;
11046;SDS011;5576;50.008;10.596;2023-06-10T11:33:57;4.18;;;3.67;;
11046;SDS011;5576;50.008;10.596;2023-06-10T11:36:25;3.85;;;3.55;;
11046;SDS011;5576;50.008;10.596;2023-06-10T11:38:55;4.13;;;3.47;;
11046;SDS011;5576;50.008;10.596;2023-06-10T11:41:23;3.80;;;3.50;;
11046;SDS011;5576;50.008;10.596;2023-06-10T11:43:51;4.93;;;3.25;;
11046;SDS011;5576;50.008;10.596;2023-06-10T11:46:17;3.72;;;3.20;;
11046;SDS011;5576;50.008;10.596;2023-06-10T11:48:59;3.67;;;3.30;;
11046;SDS011;5576;50.008;10.596;2023-06-10T11:51:26;3.70;;;3.40;;
11046;SDS011;5576;50.008;10.596;2023-06-10T11:53:53;4.20;;;3.80;;
11046;SDS011;5576;50.008;10.596;2023-06-10T11:56:21;3.85;;;3.45;;
11046;SDS011;5576;50.008;10.596;2023-06-10T11:58:52;3.70;;;3.40;;
11046;SDS011;5576;50.008;10.596;2023-06-10T12:01:32;3.80;;;3.30;;
11046;SDS011;5576;50.008;10.596;2023-06-10T12:04:00;3.95;;;3.55;;
11046;SDS011;5576;50.008;10.596;2023-06-10T12:06:37;4.28;;;3.35;;
11046;SDS011;5576;50.008;10.596;2023-06-10T12:09:05;3.45;;;3.17;;
11046;SDS011;5576;50.008;10.596;2023-06-10T12:11:31;3.60;;;3.30;;
11046;SDS011;5576;50.008;10.596;2023-06-10T12:13:58;3.88;;;3.58;;
11046;SDS011;5576;50.008;10.596;2023-06-10T12:16:23;3.60;;;3.30;;
11046;SDS011;5576;50.008;10.596;2023-06-10T12:18:49;3.53;;;3.23;;
11046;SDS011;5576;50.008;10.596;2023-06-10T12:21:16;3.30;;;3.00;;
11046;SDS011;5576;50.008;10.596;2023-06-10T12:26:34;3.85;;;3.25;;
11046;SDS011;5576;50.008;10.596;2023-06-10T12:29:02;3.25;;;2.95;;
11046;SDS011;5576;50.008;10.596;2023-06-10T12:31:51;3.65;;;3.15;;
11046;SDS011;5576;50.008;10.596;2023-06-10T12:34:18;3.40;;;3.10;;
11046;SDS011;5576;50.008;10.596;2023-06-10T12:36:48;3.53;;;3.22;;
11046;SDS011;5576;50.008;10.596;2023-06-10T12:39:14;3.55;;;3.25;;
11046;SDS011;5576;50.008;10.596;2023-06-10T12:41:40;3.87;;;3.40;;
11046;SDS011;5576;50.008;10.596;2023-06-10T12:44:05;3.80;;;3.50;;
11046;SDS011;5576;50.008;10.596;2023-06-10T12:46:38;3.50;;;3.20;;
11046;SDS011;5576;50.008;10.596;2023-06-10T12:49:04;4.07;;;3.20;;
11046;SDS011;5576;50.008;10.596;2023-06-10T12:51:30;3.85;;;3.53;;
11046;SDS011;5576;50.008;10.596;2023-06-10T12:53:56;4.15;;;3.53;;
11046;SDS011;5576;50.008;10.596;2023-06-10T12:56:22;5.68;;;4.57;;
11046;SDS011;5576;50.008;10.596;2023-06-10T12:58:49;5.20;;;4.70;;
11046;SDS011;5576;50.008;10.596;2023-06-10T13:01:14;5.73;;;4.30;;
11046;SDS011;5576;50.008;10.596;2023-06-10T13:03:40;4.82;;;4.28;;
11046;SDS011;5576;50.008;10.596;2023-06-10T13:06:06;4.55;;;4.15;;
11046;SDS011;5576;50.008;10.596;2023-06-10T13:08:32;4.88;;;4.47;;
11046;SDS011;5576;50.008;10.596;2023-06-10T13:10:58;4.90;;;4.20;;
11046;SDS011;5576;50.008;10.596;2023-06-10T13:13:24;4.35;;;3.95;;
11046;SDS011;5576;50.008;10.596;2023-06-10T13:15:51;5.80;;;4.20;;
11046;SDS011;5576;50.008;10.596;2023-06-10T13:18:16;4.50;;;4.10;;
11046;SDS011;5576;50.008;10.596;2023-06-10T13:20:44;4.73;;;4.33;;
11046;SDS011;5576;50.008;10.596;2023-06-10T13:23:09;4.50;;;4.10;;
11046;SDS011;5576;50.008;10.596;2023-06-10T13:25:35;4.30;;;4.00;;
11046;SDS011;5576;50.008;10.596;2023-06-10T13:28:01;4.60;;;3.80;;
11046;SDS011;5576;50.008;10.596;2023-06-10T13:30:27;4.67;;;4.00;;
11046;SDS011;5576;50.008;10.596;2023-06-10T13:32:53;4.38;;;3.97;;
11046;SDS011;5576;50.008;10.596;2023-06-10T13:35:19;4.60;;;4.20;;
11046;SDS011;5576;50.008;10.596;2023-06-10T13:37:45;4.95;;;4.47;;
11046;SDS011;5576;50.008;10.596;2023-06-10T13:40:11;5.07;;;4.65;;
11046;SDS011;5576;50.008;10.596;2023-06-10T13:42:37;5.47;;;4.57;;
11046;SDS011;5576;50.008;10.596;2023-06-10T13:45:03;5.07;;;4.67;;
11046;SDS011;5576;50.008;10.596;2023-06-10T13:47:30;5.35;;;4.95;;
11046;SDS011;5576;50.008;10.596;2023-06-10T13:49:55;6.47;;;5.10;;
11046;SDS011;5576;50.008;10.596;2023-06-10T13:52:21;5.70;;;5.10;;
11046;SDS011;5576;50.008;10.596;2023-06-10T13:54:47;5.90;;;5.35;;
11046;SDS011;5576;50.008;10.596;2023-06-10T13:57:12;6.57;;;5.88;;
11046;SDS011;5576;50.008;10.596;2023-06-10T13:59:38;6.60;;;6.00;;
11046;SDS011;5576;50.008;10.596;2023-06-10T14:02:04;6.75;;;6.07;;
11046;SDS011;5576;50.008;10.596;2023-06-10T14:04:30;6.85;;;6.10;;
11046;SDS011;5576;50.008;10.596;2023-06-10T14:06:55;6.97;;;6.37;;
11046;SDS011;5576;50.008;10.596;2023-06-10T14:09:22;6.87;;;6.03;;
11046;SDS011;5576;50.008;10.596;2023-06-10T14:11:48;6.63;;;6.03;;
11046;SDS011;5576;50.008;10.596;2023-06-10T14:14:14;7.32;;;6.55;;
11046;SDS011;5576;50.008;10.596;2023-06-10T14:16:40;7.25;;;6.65;;
11046;SDS011;5576;50.008;10.596;2023-06-10T14:19:05;7.40;;;6.70;;
11046;SDS011;5576;50.008;10.596;2023-06-10T14:21:31;7.77;;;6.97;;
11046;SDS011;5576;50.008;10.596;2023-06-10T14:23:57;7.00;;;6.32;;
11046;SDS011;5576;50.008;10.596;2023-06-10T14:26:22;7.47;;;6.78;;
11046;SDS011;5576;50.008;10.596;2023-06-10T14:28:49;7.17;;;6.47;;
11046;SDS011;5576;50.008;10.596;2023-06-10T14:31:15;7.00;;;6.40;;
11046;SDS011;5576;50.008;10.596;2023-06-10T14:33:41;6.53;;;5.95;;
11046;SDS011;5576;50.008;10.596;2023-06-10T14:36:08;6.93;;;6.22;;
11046;SDS011;5576;50.008;10.596;2023-06-10T14:38:35;6.57;;;6.07;;
11046;SDS011;5576;50.008;10.596;2023-06-10T14:41:00;7.23;;;6.63;;
11046;SDS011;5576;50.008;10.596;2023-06-10T14:43:27;6.53;;;6.03;;
11046;SDS011;5576;50.008;10.596;2023-06-10T14:45:53;7.00;;;6.18;;
11046;SDS011;5576;50.008;10.596;2023-06-10T14:48:20;6.38;;;5.78;;
11046;SDS011;5576;50.008;10.596;2023-06-10T14:50:46;6.55;;;5.95;;
11046;SDS011;5576;50.008;10.596;2023-06-10T14:53:16;6.70;;;6.10;;
11046;SDS011;5576;50.008;10.596;2023-06-10T14:55:43;6.85;;;6.15;;
11046;SDS011;5576;50.008;10.596;2023-06-10T14:58:09;6.37;;;5.77;;
11046;SDS011;5576;50.008;10.596;2023-06-10T15:00:35;6.60;;;5.72;;
11046;SDS011;5576;50.008;10.596;2023-06-10T15:03:00;6.17;;;5.57;;
11046;SDS011;5576;50.008;10.596;2023-06-10T15:05:26;6.50;;;5.80;;
11046;SDS011;5576;50.008;10.596;2023-06-10T15:07:52;6.60;;;5.78;;